This is the latest recevied weather packets stored in our database for station/object KD8UTJ. If no packets are shown the sender has not sent any weather packets the latest 10 day(s).
| Time | Temp. | Humidity | Pressure | Rain* | Wind** | Luminosity | Snow |
|---|---|---|---|---|---|---|---|
| 1777303783 | 26.11° C | 79% | 1019 hPa | 0 mm | - | 757 W/m² | - |
| 1777303481 | 25.56° C | 81% | 1019.1 hPa | 0 mm | - | 718 W/m² | - |
| 1777303178 | 25.56° C | 82% | 1018.9 hPa | 0 mm | - | 713 W/m² | - |
| 1777302877 | 25.56° C | 82% | 1019 hPa | 0 mm | - | 239 W/m² | - |
| 1777302573 | 26.11° C | 80% | 1019 hPa | 0 mm | - | 315 W/m² | - |
| 1777302272 | 27.78° C | 75% | 1018.9 hPa | 0 mm | - | 809 W/m² | - |
| 1777301969 | 27.22° C | 74% | 1018.9 hPa | 0 mm | - | 815 W/m² | - |
| 1777301667 | 27.22° C | 73% | 1018.7 hPa | 0 mm | - | 655 W/m² | - |
| 1777301363 | 27.22° C | 72% | 1018.7 hPa | 0 mm | - | 626 W/m² | - |
| 1777301059 | 27.22° C | 71% | 1018.7 hPa | 0 mm | - | 618 W/m² | - |
| 1777300757 | 27.78° C | 71% | 1018.6 hPa | 0 mm | - | 611 W/m² | - |
| 1777300455 | 27.22° C | 74% | 1018.5 hPa | 0 mm | - | 658 W/m² | - |
| 1777300152 | 27.22° C | 73% | 1018.5 hPa | 0 mm | - | 600 W/m² | - |
| 1777299848 | 27.22° C | 75% | 1018.3 hPa | 0 mm | - | 622 W/m² | - |
| 1777299546 | 27.78° C | 73% | 1018.5 hPa | 0 mm | - | 534 W/m² | - |
| 1777299244 | 27.78° C | 74% | 1018.3 hPa | 0 mm | - | 577 W/m² | - |
| 1777298940 | 27.22° C | 73% | 1018.3 hPa | 0 mm | - | 596 W/m² | - |
| 1777298638 | 27.22° C | 72% | 1018.1 hPa | 0 mm | - | 552 W/m² | - |
| 1777298334 | 27.78° C | 73% | 1018.2 hPa | 0 mm | - | 568 W/m² | - |
| 1777298030 | 27.22° C | 73% | 1018 hPa | 0 mm | - | 538 W/m² | - |
| 1777297725 | 27.22° C | 74% | 1017.8 hPa | 0 mm | - | 471 W/m² | - |
| 1777297424 | 27.22° C | 76% | 1018 hPa | 0 mm | - | 180 W/m² | - |
| 1777297120 | 26.67° C | 77% | 1017.8 hPa | 0 mm | - | 456 W/m² | - |
| 1777296818 | 26.11° C | 78% | 1017.7 hPa | 0 mm | - | 399 W/m² | - |
| 1777296513 | 26.11° C | 78% | 1017.7 hPa | 0 mm | - | 450 W/m² | - |
* Rain latest hour (hover to see other rain measurements)
** Current wind speed in m/s (hover to see current wind gust speed)